createdAt,value
2022-08-27T00:02:25.358Z,20.83
2022-08-27T00:05:14.692Z,21.85
2022-08-27T00:08:02.040Z,20.80
2022-08-27T00:10:49.400Z,21.83
2022-08-27T00:13:36.974Z,21.55
2022-08-27T00:16:25.939Z,22.38
2022-08-27T00:19:15.075Z,21.48
2022-08-27T00:22:02.643Z,22.27
2022-08-27T00:24:49.941Z,21.00
2022-08-27T00:27:37.651Z,21.33
2022-08-27T00:30:25.765Z,22.08
2022-08-27T00:33:14.691Z,22.08
2022-08-27T00:36:03.262Z,21.15
2022-08-27T00:38:52.796Z,23.50
2022-08-27T00:41:44.330Z,22.00
2022-08-27T00:44:31.996Z,20.60
2022-08-27T00:47:25.773Z,21.65
2022-08-27T00:50:18.343Z,19.67
2022-08-27T00:53:09.852Z,21.05
2022-08-27T00:56:01.658Z,20.13
2022-08-27T00:58:52.812Z,19.90
2022-08-27T01:02:00.492Z,20.58
2022-08-27T01:04:52.919Z,20.67
2022-08-27T01:07:45.116Z,19.88
2022-08-27T01:10:32.752Z,20.00
2022-08-27T01:13:59.349Z,19.25
2022-08-27T01:16:38.001Z,19.23
2022-08-27T01:19:32.683Z,18.85
2022-08-27T01:22:32.581Z,19.13
2022-08-27T01:25:23.632Z,19.17
2022-08-27T01:28:12.127Z,18.50
2022-08-27T01:30:59.443Z,16.95
2022-08-27T01:33:57.670Z,17.95
2022-08-27T01:36:45.298Z,16.45
2022-08-27T01:39:32.743Z,16.25
2022-08-27T01:42:24.998Z,16.50
2022-08-27T01:45:15.790Z,17.48
2022-08-27T01:48:04.074Z,17.20
2022-08-27T01:50:51.824Z,16.27
2022-08-27T01:53:39.050Z,16.75
2022-08-27T01:56:26.660Z,16.50
2022-08-27T01:59:15.619Z,17.05
2022-08-27T02:02:03.805Z,17.38
2022-08-27T02:04:52.242Z,17.70
2022-08-27T02:07:40.768Z,16.42
2022-08-27T02:10:31.843Z,16.45
2022-08-27T02:13:20.050Z,16.90
2022-08-27T02:16:09.543Z,15.88
2022-08-27T02:18:56.826Z,16.48
2022-08-27T02:21:44.220Z,15.88
2022-08-27T02:24:31.547Z,16.17
2022-08-27T02:27:19.467Z,16.83
2022-08-27T02:30:08.632Z,18.15
2022-08-27T02:32:57.174Z,17.13
2022-08-27T02:35:44.447Z,17.23
2022-08-27T02:38:31.717Z,16.08
2022-08-27T02:41:19.174Z,15.82
2022-08-27T02:44:10.323Z,15.18
2022-08-27T02:46:57.985Z,15.85
2022-08-27T02:49:46.587Z,16.00
2022-08-27T02:52:34.232Z,15.57
2022-08-27T02:55:22.352Z,15.07
2022-08-27T02:58:09.616Z,13.80
2022-08-27T03:00:58.029Z,15.35
2022-08-27T03:03:45.474Z,14.93
2022-08-27T03:06:34.419Z,15.35
2022-08-27T03:09:21.491Z,15.73
2022-08-27T03:12:09.247Z,16.42
2022-08-27T03:14:56.835Z,15.93
2022-08-27T03:18:02.212Z,15.48
2022-08-27T03:20:52.536Z,15.32
2022-08-27T03:23:40.901Z,16.67
2022-08-27T03:26:28.243Z,16.35
2022-08-27T03:29:15.780Z,16.70
2022-08-27T03:32:03.085Z,14.90
2022-08-27T03:34:50.431Z,15.82
2022-08-27T03:37:37.751Z,16.02
2022-08-27T03:40:26.230Z,14.95
2022-08-27T03:43:15.917Z,14.80
2022-08-27T03:46:03.554Z,14.88
2022-08-27T03:48:52.248Z,14.32
2022-08-27T03:51:44.961Z,14.50
2022-08-27T03:54:32.872Z,13.57
2022-08-27T03:57:21.348Z,13.73
2022-08-27T04:00:13.036Z,13.07
2022-08-27T04:03:00.271Z,13.45
2022-08-27T04:05:53.692Z,14.38
2022-08-27T04:08:41.003Z,15.38
2022-08-27T04:11:29.479Z,14.45
2022-08-27T04:14:25.399Z,13.63
2022-08-27T04:17:14.894Z,14.00
2022-08-27T04:20:24.647Z,14.07
2022-08-27T04:23:09.578Z,13.65
2022-08-27T04:25:56.907Z,14.32
2022-08-27T04:28:48.520Z,14.07
2022-08-27T04:31:37.546Z,13.70
2022-08-27T04:34:25.542Z,13.88
2022-08-27T04:37:12.693Z,13.63
2022-08-27T04:40:00.524Z,13.07
2022-08-27T04:42:47.719Z,13.57
2022-08-27T04:45:34.883Z,12.57
2022-08-27T04:48:23.624Z,13.30
2022-08-27T04:51:12.806Z,12.40
2022-08-27T04:54:04.345Z,13.75
2022-08-27T04:56:52.430Z,12.65
2022-08-27T04:59:40.083Z,13.23
2022-08-27T05:02:27.131Z,13.60
2022-08-27T05:05:16.230Z,12.95
2022-08-27T05:08:04.823Z,12.63
2022-08-27T05:10:54.578Z,12.68
2022-08-27T05:13:42.479Z,12.00
2022-08-27T05:16:29.957Z,12.63
2022-08-27T05:19:17.598Z,12.02
2022-08-27T05:22:06.508Z,12.95
2022-08-27T05:24:53.795Z,13.25
2022-08-27T05:27:41.110Z,13.55
2022-08-27T05:30:28.512Z,13.07
2022-08-27T05:33:18.930Z,13.93
2022-08-27T05:36:07.730Z,13.73
2022-08-27T05:38:58.517Z,13.63
2022-08-27T05:41:45.719Z,14.20
2022-08-27T05:44:41.634Z,14.70
2022-08-27T05:47:29.359Z,13.90
2022-08-27T05:50:21.826Z,13.80
2022-08-27T05:53:12.114Z,13.45
2022-08-27T05:56:00.636Z,13.20
2022-08-27T05:59:06.445Z,15.10
2022-08-27T06:01:58.705Z,13.75
2022-08-27T06:04:46.117Z,14.25
2022-08-27T06:07:35.031Z,13.80
2022-08-27T06:10:22.339Z,12.30
2022-08-27T06:13:11.117Z,12.85
2022-08-27T06:16:03.107Z,12.70
2022-08-27T06:18:54.069Z,12.55
2022-08-27T06:21:42.471Z,13.18
2022-08-27T06:24:29.780Z,13.07
2022-08-27T06:27:20.502Z,11.63
2022-08-27T06:30:14.658Z,12.77
2022-08-27T06:33:04.680Z,12.45
2022-08-27T06:35:52.007Z,11.73
2022-08-27T06:38:39.949Z,12.07
2022-08-27T06:41:29.216Z,11.27
2022-08-27T06:44:17.652Z,11.98
2022-08-27T06:47:06.557Z,11.90
2022-08-27T06:49:53.611Z,11.85
2022-08-27T06:52:40.963Z,12.15
2022-08-27T06:55:28.527Z,12.32
2022-08-27T06:58:17.182Z,12.25
2022-08-27T07:01:14.531Z,11.85
2022-08-27T07:04:07.169Z,12.07
2022-08-27T07:06:55.245Z,12.63
2022-08-27T07:09:42.539Z,12.00
2022-08-27T07:12:30.656Z,12.15
2022-08-27T07:15:19.188Z,12.45
2022-08-27T07:18:11.141Z,12.57
2022-08-27T07:21:01.532Z,12.75
2022-08-27T07:23:50.069Z,13.50
2022-08-27T07:26:40.788Z,12.63
2022-08-27T07:29:32.086Z,12.65
2022-08-27T07:32:19.845Z,11.27
2022-08-27T07:35:09.620Z,11.05
2022-08-27T07:37:58.727Z,11.50
2022-08-27T07:40:46.067Z,10.10
2022-08-27T07:43:53.201Z,10.35
2022-08-27T07:46:47.434Z,9.80
2022-08-27T07:49:35.648Z,9.70
2022-08-27T07:52:26.421Z,9.30
2022-08-27T07:55:16.477Z,9.30
2022-08-27T07:58:03.898Z,8.80
2022-08-27T08:00:52.528Z,9.95
2022-08-27T08:03:40.041Z,9.13
2022-08-27T08:06:28.105Z,8.40
2022-08-27T08:09:15.726Z,9.27
2022-08-27T08:12:05.091Z,8.88
2022-08-27T08:14:55.856Z,9.13
2022-08-27T08:17:43.316Z,9.27
2022-08-27T08:20:56.650Z,9.48
2022-08-27T08:23:39.672Z,8.95
2022-08-27T08:26:26.829Z,9.20
2022-08-27T08:29:18.303Z,9.75
2022-08-27T08:32:07.284Z,9.85
2022-08-27T08:34:54.550Z,9.57
2022-08-27T08:37:43.636Z,9.65
2022-08-27T08:40:36.002Z,8.48
2022-08-27T08:43:32.352Z,8.82
2022-08-27T08:46:28.803Z,8.50
2022-08-27T08:49:30.632Z,8.65
2022-08-27T08:52:42.032Z,9.05
2022-08-27T08:55:41.698Z,8.45
2022-08-27T08:58:41.025Z,8.40
2022-08-27T09:01:30.189Z,9.13
2022-08-27T09:04:17.829Z,8.35
2022-08-27T09:07:10.522Z,8.25
2022-08-27T09:10:05.613Z,9.02
2022-08-27T09:12:54.349Z,9.20
2022-08-27T09:15:42.198Z,8.73
2022-08-27T09:18:31.462Z,9.75
2022-08-27T09:21:30.641Z,8.35
2022-08-27T09:24:29.418Z,9.68
2022-08-27T09:27:16.972Z,9.10
2022-08-27T09:30:11.102Z,9.07
2022-08-27T09:33:01.601Z,9.43
2022-08-27T09:35:52.226Z,9.60
2022-08-27T09:38:43.817Z,9.20
2022-08-27T09:41:46.020Z,8.82
2022-08-27T09:44:33.932Z,8.55
2022-08-27T09:47:21.497Z,9.02
2022-08-27T09:50:11.156Z,9.15
2022-08-27T09:53:03.559Z,9.25
2022-08-27T09:55:56.553Z,8.27
2022-08-27T09:58:52.797Z,8.27
2022-08-27T10:01:57.884Z,9.13
2022-08-27T10:04:50.461Z,8.57
2022-08-27T10:07:52.440Z,8.88
2022-08-27T10:10:48.481Z,8.82
2022-08-27T10:13:49.208Z,8.60
2022-08-27T10:16:56.367Z,8.73
2022-08-27T10:19:57.917Z,8.05
2022-08-27T10:22:55.385Z,8.05
2022-08-27T10:26:00.234Z,7.85
2022-08-27T10:29:11.991Z,8.15
2022-08-27T10:32:16.821Z,8.02
2022-08-27T10:35:15.301Z,7.93
2022-08-27T10:38:13.415Z,8.05
2022-08-27T10:41:09.779Z,7.38
2022-08-27T10:44:20.170Z,8.07
2022-08-27T10:47:26.978Z,7.45
2022-08-27T10:50:28.282Z,8.32
2022-08-27T10:53:32.814Z,7.85
2022-08-27T10:56:30.569Z,7.22
2022-08-27T10:59:28.405Z,7.28
2022-08-27T11:02:29.903Z,7.47
2022-08-27T11:05:21.141Z,8.15
2022-08-27T11:08:18.356Z,7.10
2022-08-27T11:11:56.981Z,7.07
2022-08-27T11:14:30.655Z,6.82
2022-08-27T11:17:25.060Z,6.30
2022-08-27T11:20:20.284Z,6.57
2022-08-27T11:23:11.559Z,6.57
2022-08-27T11:26:03.953Z,6.05
2022-08-27T11:28:57.068Z,6.80
2022-08-27T11:31:50.288Z,6.57
2022-08-27T11:34:45.959Z,6.53
2022-08-27T11:37:54.963Z,6.35
2022-08-27T11:40:59.016Z,6.32
2022-08-27T11:43:47.505Z,6.18
2022-08-27T11:46:49.556Z,6.53
2022-08-27T11:49:49.815Z,6.25
2022-08-27T11:52:41.437Z,7.03
2022-08-27T11:55:33.677Z,6.68
2022-08-27T11:58:34.749Z,6.50
2022-08-27T12:01:40.974Z,7.28
2022-08-27T12:04:39.807Z,7.20
2022-08-27T12:07:35.817Z,7.05
2022-08-27T12:10:47.143Z,6.80
2022-08-27T12:13:41.763Z,6.80
2022-08-27T12:16:40.993Z,6.90
2022-08-27T12:19:45.618Z,6.90
2022-08-27T12:23:12.423Z,6.50
2022-08-27T12:26:02.503Z,7.07
2022-08-27T12:28:52.855Z,6.72
2022-08-27T12:31:43.705Z,6.85
2022-08-27T12:34:33.832Z,6.68
2022-08-27T12:37:27.960Z,6.57
2022-08-27T12:40:25.740Z,7.20
2022-08-27T12:43:16.769Z,7.15
2022-08-27T12:46:09.239Z,6.90
2022-08-27T12:49:01.270Z,6.72
2022-08-27T12:52:22.748Z,7.22
2022-08-27T12:55:23.387Z,6.53
2022-08-27T12:58:19.379Z,7.25
2022-08-27T13:01:34.161Z,6.95
2022-08-27T13:04:26.043Z,6.47
2022-08-27T13:07:13.509Z,6.93
2022-08-27T13:10:13.163Z,6.47
2022-08-27T13:13:10.648Z,6.88
2022-08-27T13:16:02.264Z,6.63
2022-08-27T13:18:52.211Z,7.32
2022-08-27T13:21:39.422Z,7.03
2022-08-27T13:24:33.850Z,6.82
2022-08-27T13:27:27.202Z,6.93
2022-08-27T13:30:29.301Z,6.93
2022-08-27T13:33:27.852Z,4.97
2022-08-27T13:36:15.038Z,4.75
2022-08-27T13:39:06.384Z,5.30
2022-08-27T13:41:54.142Z,5.97
2022-08-27T13:44:46.623Z,5.75
2022-08-27T13:47:46.391Z,4.43
2022-08-27T13:50:36.156Z,4.22
2022-08-27T13:53:46.615Z,5.00
2022-08-27T13:56:37.441Z,5.00
2022-08-27T13:59:30.529Z,4.85
2022-08-27T14:02:26.209Z,6.05
2022-08-27T14:05:28.926Z,5.93
2022-08-27T14:08:19.872Z,6.20
2022-08-27T14:11:10.548Z,6.13
2022-08-27T14:13:58.789Z,6.65
2022-08-27T14:16:46.421Z,6.63
2022-08-27T14:19:36.427Z,6.57
2022-08-27T14:22:25.993Z,6.25
2022-08-27T14:25:14.392Z,6.47
2022-08-27T14:28:01.897Z,6.05
2022-08-27T14:30:53.251Z,6.50
2022-08-27T14:33:41.459Z,6.75
2022-08-27T14:36:32.410Z,6.63
2022-08-27T14:39:22.063Z,5.90
2022-08-27T14:42:13.973Z,5.57
2022-08-27T14:45:01.290Z,6.10
2022-08-27T14:47:49.238Z,5.25
2022-08-27T14:50:38.742Z,5.68
2022-08-27T14:53:26.783Z,5.85
2022-08-27T14:56:15.191Z,6.30
2022-08-27T14:59:02.839Z,6.20
2022-08-27T15:01:50.484Z,6.15
2022-08-27T15:04:38.015Z,6.53
2022-08-27T15:07:25.649Z,6.25
2022-08-27T15:10:13.737Z,6.30
2022-08-27T15:13:02.315Z,5.68
2022-08-27T15:15:49.550Z,6.60
2022-08-27T15:18:39.301Z,5.93
2022-08-27T15:21:28.618Z,6.15
2022-08-27T15:24:22.394Z,6.65
2022-08-27T15:27:09.933Z,6.18
2022-08-27T15:29:59.002Z,5.65
2022-08-27T15:32:49.199Z,6.15
2022-08-27T15:35:36.648Z,5.88
2022-08-27T15:38:24.019Z,5.93
2022-08-27T15:41:11.697Z,6.10
2022-08-27T15:43:59.648Z,6.32
2022-08-27T15:46:48.239Z,6.43
2022-08-27T15:49:35.471Z,5.80
2022-08-27T15:52:24.587Z,5.57
2022-08-27T15:55:23.978Z,5.80
2022-08-27T15:58:13.025Z,6.13
2022-08-27T16:01:08.931Z,5.53
2022-08-27T16:03:59.477Z,5.97
2022-08-27T16:06:46.627Z,6.10
2022-08-27T16:09:34.131Z,6.38
2022-08-27T16:12:27.024Z,6.50
2022-08-27T16:15:15.669Z,5.90
2022-08-27T16:18:04.754Z,5.97
2022-08-27T16:20:53.226Z,6.28
2022-08-27T16:23:40.457Z,6.38
2022-08-27T16:26:27.935Z,7.13
2022-08-27T16:29:15.700Z,6.65
2022-08-27T16:32:03.242Z,6.18
2022-08-27T16:34:54.918Z,6.25
2022-08-27T16:37:45.164Z,6.22
2022-08-27T16:40:34.081Z,6.35
2022-08-27T16:43:25.580Z,5.82
2022-08-27T16:46:12.865Z,6.22
2022-08-27T16:49:17.375Z,6.40
2022-08-27T16:52:06.349Z,5.78
2022-08-27T16:54:56.849Z,5.95
2022-08-27T16:57:44.312Z,5.90
2022-08-27T17:00:32.344Z,5.60
2022-08-27T17:03:22.071Z,5.85
2022-08-27T17:06:10.053Z,5.40
2022-08-27T17:08:59.539Z,5.53
2022-08-27T17:11:54.558Z,5.38
2022-08-27T17:14:41.761Z,5.78
2022-08-27T17:17:30.216Z,5.55
2022-08-27T17:20:17.568Z,5.18
2022-08-27T17:23:05.652Z,5.55
2022-08-27T17:25:52.898Z,6.50
2022-08-27T17:28:43.404Z,5.88
2022-08-27T17:31:35.750Z,5.50
2022-08-27T17:34:25.726Z,5.53
2022-08-27T17:37:13.093Z,6.20
2022-08-27T17:40:00.696Z,5.80
2022-08-27T17:42:47.877Z,5.82
2022-08-27T17:45:36.994Z,5.50
2022-08-27T17:48:26.716Z,5.53
2022-08-27T17:51:14.720Z,5.53
2022-08-27T17:54:02.039Z,5.55
2022-08-27T17:56:49.374Z,5.70
2022-08-27T17:59:36.728Z,5.22
2022-08-27T18:02:31.382Z,5.88
2022-08-27T18:05:21.664Z,5.35
2022-08-27T18:08:08.844Z,5.30
2022-08-27T18:10:56.608Z,6.00
2022-08-27T18:13:44.186Z,5.53
2022-08-27T18:16:31.398Z,5.60
2022-08-27T18:19:19.997Z,5.35
2022-08-27T18:22:07.249Z,5.38
2022-08-27T18:24:54.608Z,5.78
2022-08-27T18:27:45.100Z,5.90
2022-08-27T18:30:32.566Z,5.93
2022-08-27T18:33:19.780Z,5.50
2022-08-27T18:36:09.335Z,6.05
2022-08-27T18:38:56.847Z,5.70
2022-08-27T18:41:44.483Z,5.53
2022-08-27T18:44:33.057Z,5.65
2022-08-27T18:47:20.304Z,5.53
2022-08-27T18:50:17.474Z,5.72
2022-08-27T18:53:06.533Z,5.82
2022-08-27T18:55:54.140Z,5.80
2022-08-27T18:58:42.456Z,5.50
2022-08-27T19:01:31.874Z,5.50
2022-08-27T19:04:19.874Z,5.53
2022-08-27T19:07:07.295Z,6.05
2022-08-27T19:09:55.930Z,5.70
2022-08-27T19:12:43.099Z,6.03
2022-08-27T19:15:30.683Z,5.57
2022-08-27T19:18:18.799Z,6.38
2022-08-27T19:21:08.100Z,6.47
2022-08-27T19:23:55.361Z,5.93
2022-08-27T19:26:44.521Z,6.13
2022-08-27T19:29:32.076Z,6.13
2022-08-27T19:32:19.797Z,5.53
2022-08-27T19:35:08.548Z,5.95
2022-08-27T19:37:55.995Z,6.00
2022-08-27T19:40:43.907Z,6.30
2022-08-27T19:43:32.905Z,5.63
2022-08-27T19:46:23.415Z,6.25
2022-08-27T19:49:10.379Z,6.38
2022-08-27T19:51:57.752Z,5.28
2022-08-27T19:55:10.198Z,5.88
2022-08-27T19:57:54.648Z,5.70
2022-08-27T20:00:43.792Z,5.90
2022-08-27T20:03:31.054Z,5.82
2022-08-27T20:06:18.321Z,5.90
2022-08-27T20:09:08.438Z,5.47
2022-08-27T20:11:55.737Z,6.10
2022-08-27T20:14:44.171Z,5.80
2022-08-27T20:17:36.069Z,6.07
2022-08-27T20:20:25.639Z,5.53
2022-08-27T20:23:12.847Z,6.38
2022-08-27T20:26:01.409Z,6.55
2022-08-27T20:28:48.522Z,6.03
2022-08-27T20:31:36.135Z,6.07
2022-08-27T20:34:24.692Z,5.63
2022-08-27T20:37:18.155Z,5.55
2022-08-27T20:40:06.885Z,5.30
2022-08-27T20:42:54.077Z,5.70
2022-08-27T20:45:42.147Z,5.75
2022-08-27T20:48:29.438Z,5.38
2022-08-27T20:51:18.559Z,6.13
2022-08-27T20:54:05.834Z,5.13
2022-08-27T20:56:53.367Z,5.50
2022-08-27T20:59:59.664Z,5.30
2022-08-27T21:02:47.925Z,6.28
2022-08-27T21:05:36.310Z,5.40
2022-08-27T21:08:24.818Z,5.10
2022-08-27T21:11:15.142Z,5.18
2022-08-27T21:14:02.579Z,6.00
2022-08-27T21:16:50.330Z,5.28
2022-08-27T21:19:38.169Z,5.25
2022-08-27T21:22:26.365Z,5.28
2022-08-27T21:25:16.075Z,5.10
2022-08-27T21:28:04.587Z,4.90
2022-08-27T21:30:52.274Z,5.55
2022-08-27T21:33:39.806Z,5.72
2022-08-27T21:36:27.279Z,5.28
2022-08-27T21:39:14.731Z,5.03
2022-08-27T21:42:03.642Z,5.03
2022-08-27T21:44:50.827Z,4.90
2022-08-27T21:47:39.012Z,5.10
2022-08-27T21:50:26.993Z,5.05
2022-08-27T21:53:14.486Z,4.75
2022-08-27T21:56:01.748Z,5.32
2022-08-27T21:58:50.622Z,5.40
2022-08-27T22:01:39.429Z,4.47
2022-08-27T22:04:27.487Z,4.63
2022-08-27T22:07:18.148Z,4.53
2022-08-27T22:10:06.977Z,5.00
2022-08-27T22:12:53.993Z,4.60
2022-08-27T22:15:48.748Z,4.57
2022-08-27T22:18:36.525Z,4.90
2022-08-27T22:21:26.465Z,4.32
2022-08-27T22:24:14.545Z,4.85
2022-08-27T22:27:01.670Z,4.68
2022-08-27T22:29:48.852Z,3.95
2022-08-27T22:32:37.586Z,4.22
2022-08-27T22:35:25.183Z,5.10
2022-08-27T22:38:15.637Z,4.38
2022-08-27T22:41:02.684Z,4.43
2022-08-27T22:43:50.546Z,4.50
2022-08-27T22:46:43.856Z,4.45
2022-08-27T22:49:32.646Z,4.35
2022-08-27T22:52:20.068Z,4.28
2022-08-27T22:55:13.159Z,4.25
2022-08-27T22:58:02.090Z,4.10
2022-08-27T23:00:50.808Z,4.20
2022-08-27T23:03:40.107Z,3.72
2022-08-27T23:06:28.911Z,4.22
2022-08-27T23:09:16.051Z,4.22
2022-08-27T23:12:04.385Z,4.25
2022-08-27T23:14:51.731Z,4.00
2022-08-27T23:17:39.398Z,4.22
2022-08-27T23:20:27.562Z,3.70
2022-08-27T23:23:16.506Z,3.97
2022-08-27T23:26:25.196Z,4.38
2022-08-27T23:29:12.434Z,3.95
2022-08-27T23:32:00.264Z,4.05
2022-08-27T23:34:47.582Z,4.10
2022-08-27T23:37:34.808Z,4.13
2022-08-27T23:40:24.771Z,4.25
2022-08-27T23:43:12.492Z,4.25
2022-08-27T23:45:59.900Z,3.78
2022-08-27T23:48:47.127Z,3.80
2022-08-27T23:51:34.705Z,4.13
2022-08-27T23:54:21.992Z,4.05
2022-08-27T23:57:10.634Z,3.90
2022-08-27T23:59:58.438Z,3.90
